Time;durP1;ratioP1;P1;durP2;ratioP2;P2;SDS_P1;SDS_P2;PMS_P1;PMS_P2;Temp;Humidity;BMP_temperature;BMP_pressure;BME280_temperature;BME280_humidity;BME280_pressure;Samples;Min_cycle;Max_cycle;Signal;HPM_P1;HPM_P2
2021/11/07 11:24:34;;;;;;;15.23;3.47;;;9.50;99.90;;;;;;5090881;28;20545;-85
2021/11/07 11:30:08;;;;;;;16.02;4.70;;;10.20;99.90;;;;;;5091308;28;20167;-84
2021/11/07 11:37:54;;;;;;;8.63;3.28;;;10.00;99.90;;;;;;5090507;28;20679;-84
2021/11/07 11:42:56;;;;;;;9.13;2.88;;;10.10;99.90;;;;;;5091140;28;20195;-83
2021/11/07 11:45:27;;;;;;;9.57;3.03;;;10.00;99.90;;;;;;5090973;28;20235;-84
2021/11/07 11:58:40;;;;;;;11.45;2.95;;;10.20;99.90;;;;;;5090603;28;20610;-84
2021/11/07 12:01:28;;;;;;;20.33;2.97;;;9.80;99.90;;;;;;5089951;28;20175;-84
2021/11/07 12:06:45;;;;;;;13.80;3.35;;;9.90;99.90;;;;;;5090761;28;20167;-83
2021/11/07 12:14:41;;;;;;;13.38;3.47;;;10.10;99.90;;;;;;5090619;28;20597;-84
2021/11/07 12:17:09;;;;;;;11.40;2.58;;;9.80;99.90;;;;;;5088944;28;20621;-84
2021/11/07 12:19:39;;;;;;;10.82;3.33;;;9.80;99.90;;;;;;5090166;28;20255;-84
2021/11/07 12:22:36;;;;;;;12.32;3.83;;;9.80;99.90;;;;;;5089915;28;20167;-85
2021/11/07 12:25:09;;;;;;;8.48;3.28;;;9.80;99.90;;;;;;5089870;28;20203;-85
2021/11/07 12:27:53;;;;;;;14.10;4.30;;;9.70;99.90;;;;;;5090056;28;20218;-84
2021/11/07 12:30:23;;;;;;;6.55;2.60;;;9.70;99.90;;;;;;5088731;28;20160;-83
2021/11/07 12:33:00;;;;;;;11.23;2.95;;;9.70;99.90;;;;;;5088703;28;20665;-84
2021/11/07 12:35:39;;;;;;;19.55;3.47;;;9.70;99.90;;;;;;5077763;28;20248;-84
2021/11/07 12:41:06;;;;;;;15.90;3.60;;;9.70;99.90;;;;;;5076725;28;20560;-84
2021/11/07 12:43:42;;;;;;;12.10;3.05;;;10.90;99.90;;;;;;5076088;28;20196;-84
2021/11/07 12:46:15;;;;;;;12.02;4.00;;;9.60;99.90;;;;;;5074759;28;20164;-83
2021/11/07 12:48:55;;;;;;;15.73;3.13;;;9.60;99.90;;;;;;5075125;28;20172;-84
2021/11/07 12:51:45;;;;;;;13.02;3.30;;;10.60;99.90;;;;;;5075089;28;20199;-84
2021/11/07 12:54:27;;;;;;;8.32;3.15;;;9.60;99.90;;;;;;5074482;28;20629;-84
2021/11/07 12:57:00;;;;;;;21.38;3.25;;;9.60;99.90;;;;;;5076249;28;20148;-85
2021/11/07 12:59:46;;;;;;;9.35;3.88;;;9.60;99.90;;;;;;5074583;28;20191;-84
2021/11/07 13:02:17;;;;;;;12.50;4.18;;;9.70;99.90;;;;;;5074255;28;20212;-83
2021/11/07 13:05:04;;;;;;;8.30;2.67;;;9.80;99.90;;;;;;5074581;28;20196;-83
2021/11/07 13:07:40;;;;;;;9.65;3.03;;;9.80;99.90;;;;;;5075597;28;20187;-83
2021/11/07 13:10:11;;;;;;;5.95;2.58;;;9.80;99.90;;;;;;5076031;28;20168;-83
2021/11/07 13:12:42;;;;;;;20.40;3.25;;;9.80;99.90;;;;;;5074749;28;20168;-83
2021/11/07 13:26:15;;;;;;;15.88;3.35;;;10.30;99.90;;;;;;5075755;28;20169;-83
2021/11/07 13:28:44;;;;;;;17.15;4.15;;;10.40;99.90;;;;;;5074141;28;20529;-83
2021/11/07 13:31:24;;;;;;;14.35;3.10;;;10.50;99.90;;;;;;5074321;28;20196;-84
2021/11/07 13:33:49;;;;;;;10.13;3.13;;;10.70;99.90;;;;;;5074068;28;20214;-84
2021/11/07 13:36:18;;;;;;;12.07;4.28;;;10.20;99.90;;;;;;5073962;28;20180;-84
2021/11/07 13:39:04;;;;;;;11.00;3.15;;;10.10;99.90;;;;;;5073934;28;20176;-84
2021/11/07 13:41:30;;;;;;;11.90;3.22;;;10.00;99.90;;;;;;5074579;28;20196;-85
2021/11/07 13:44:07;;;;;;;13.20;3.45;;;9.90;99.90;;;;;;5074094;28;20200;-83
2021/11/07 13:46:34;;;;;;;9.52;3.17;;;9.90;99.90;;;;;;5074080;28;20152;-84
2021/11/07 13:49:04;;;;;;;16.13;3.38;;;9.90;99.90;;;;;;5073682;28;20172;-82
2021/11/07 13:51:31;;;;;;;13.63;4.03;;;9.80;99.90;;;;;;5075128;28;20215;-83
2021/11/07 13:54:03;;;;;;;13.63;3.03;;;9.70;99.90;;;;;;5073618;28;20181;-84
2021/11/07 13:56:29;;;;;;;9.00;3.03;;;9.80;99.90;;;;;;5073607;28;20504;-84
2021/11/07 13:58:55;;;;;;;13.13;3.75;;;11.10;99.90;;;;;;5074687;28;20199;-84
2021/11/07 14:01:21;;;;;;;12.70;3.25;;;10.50;99.90;;;;;;5073751;28;20258;-84
2021/11/07 14:03:55;;;;;;;10.07;3.00;;;10.30;99.90;;;;;;5073317;28;20199;-84
2021/11/07 14:06:32;;;;;;;19.67;3.78;;;10.40;99.90;;;;;;5074666;28;20632;-84
2021/11/07 14:09:01;;;;;;;16.55;3.15;;;10.90;99.90;;;;;;5073811;28;20160;-84
2021/11/07 14:11:28;;;;;;;16.55;4.38;;;10.30;99.90;;;;;;5073250;28;20221;-83
2021/11/07 14:14:00;;;;;;;5.25;2.42;;;10.50;99.90;;;;;;5073200;28;20645;-84
2021/11/07 14:16:46;;;;;;;7.20;2.95;;;10.50;99.90;;;;;;5073155;28;20230;-84
2021/11/07 14:19:12;;;;;;;11.25;2.35;;;11.70;99.90;;;;;;5074403;28;20149;-82
2021/11/07 14:21:42;;;;;;;5.10;2.70;;;10.60;99.90;;;;;;5073844;28;20589;-81
2021/11/07 14:24:22;;;;;;;5.70;2.25;;;10.60;99.90;;;;;;5072761;28;20248;-83
2021/11/07 14:26:56;;;;;;;5.80;2.70;;;10.50;99.90;;;;;;5072964;28;20168;-82
2021/11/07 14:32:03;;;;;;;14.57;3.50;;;10.30;99.90;;;;;;5074546;28;20149;-85
2021/11/07 14:34:40;;;;;;;15.20;4.63;;;10.90;99.90;;;;;;5072834;28;20540;-82
2021/11/07 14:40:19;;;;;;;10.73;3.22;;;10.80;99.90;;;;;;5092257;28;20236;-85
2021/11/07 14:46:03;;;;;;;5.68;2.90;;;9.80;99.90;;;;;;5074393;28;20199;-84
2021/11/07 14:51:30;;;;;;;8.63;2.35;;;9.70;99.90;;;;;;5074376;28;20160;-84
2021/11/07 15:04:55;;;;;;;14.93;2.95;;;9.60;99.90;;;;;;5074188;28;20168;-87
2021/11/07 15:07:34;;;;;;;15.85;4.13;;;9.50;99.90;;;;;;5073793;28;20518;-85
2021/11/07 15:10:52;;;;;;;14.25;2.92;;;9.50;99.90;;;;;;5072661;28;20222;-85
